Time;durP1;ratioP1;P1;durP2;ratioP2;P2;SDS_P1;SDS_P2;PMS_P1;PMS_P2;Temp;Humidity;BMP_temperature;BMP_pressure;BME280_temperature;BME280_humidity;BME280_pressure;Samples;Min_cycle;Max_cycle;Signal;HPM_P1;HPM_P2
2022/06/11 00:01:10;;;;;;;2.30;2.10;;;20.10;63.20;;;;;;5073608;28;20537;-68
2022/06/11 00:03:36;;;;;;;2.47;2.17;;;20.10;63.20;;;;;;5074782;28;20693;-68
2022/06/11 00:06:03;;;;;;;2.92;2.38;;;20.10;63.20;;;;;;5075145;28;20205;-69
2022/06/11 00:08:28;;;;;;;2.33;2.20;;;20.10;63.20;;;;;;5074409;28;20178;-68
2022/06/11 00:10:54;;;;;;;1.98;1.77;;;20.10;63.20;;;;;;5074731;28;20189;-66
2022/06/11 00:13:22;;;;;;;2.33;2.10;;;20.10;63.20;;;;;;5075014;28;20208;-66
2022/06/11 00:15:51;;;;;;;2.17;2.03;;;20.10;63.20;;;;;;5074082;28;20233;-66
2022/06/11 00:18:17;;;;;;;2.88;2.45;;;20.10;63.20;;;;;;5074918;28;20265;-66
2022/06/11 00:20:43;;;;;;;2.70;2.50;;;20.10;63.20;;;;;;5074657;28;20341;-67
2022/06/11 00:23:08;;;;;;;3.17;2.30;;;20.10;63.20;;;;;;5074167;28;20202;-67
2022/06/11 00:25:34;;;;;;;3.00;2.42;;;20.10;63.20;;;;;;5074665;28;20174;-67
2022/06/11 00:28:01;;;;;;;2.50;2.30;;;20.10;63.30;;;;;;5074699;28;20248;-68
2022/06/11 00:30:26;;;;;;;2.20;1.92;;;20.10;63.30;;;;;;5073994;28;20189;-68
2022/06/11 00:32:52;;;;;;;2.35;2.15;;;20.10;63.20;;;;;;5074546;28;20174;-68
2022/06/11 00:35:18;;;;;;;2.08;1.98;;;20.10;63.30;;;;;;5074193;28;20246;-68
2022/06/11 00:37:43;;;;;;;2.85;2.63;;;20.10;63.20;;;;;;5074054;28;20218;-68
2022/06/11 00:40:10;;;;;;;2.58;2.40;;;20.10;63.20;;;;;;5073723;28;20622;-68
2022/06/11 00:42:35;;;;;;;3.38;2.30;;;20.10;63.20;;;;;;5073600;28;20195;-68
2022/06/11 00:45:14;;;;;;;2.55;2.33;;;20.10;63.20;;;;;;5074232;28;20174;-67
2022/06/11 00:47:40;;;;;;;2.50;2.30;;;20.10;63.20;;;;;;5074320;28;20170;-67
2022/06/11 00:50:20;;;;;;;2.50;2.30;;;20.10;63.20;;;;;;5073621;28;20182;-67
2022/06/11 00:52:46;;;;;;;4.22;2.50;;;20.10;63.20;;;;;;5072859;28;20231;-67
2022/06/11 00:55:32;;;;;;;3.03;2.47;;;20.00;63.20;;;;;;5074199;28;20182;-68
2022/06/11 00:58:10;;;;;;;2.90;2.17;;;20.10;63.20;;;;;;5073468;28;20217;-68
2022/06/11 01:00:42;;;;;;;2.17;2.08;;;20.00;63.10;;;;;;5072729;28;20260;-68
2022/06/11 01:03:12;;;;;;;3.45;2.08;;;20.10;63.20;;;;;;5074149;28;20332;-69
2022/06/11 01:05:39;;;;;;;2.65;2.45;;;20.00;63.10;;;;;;5073094;28;20175;-68
2022/06/11 01:08:25;;;;;;;2.20;2.10;;;20.00;63.10;;;;;;5074217;28;20265;-68
2022/06/11 01:10:54;;;;;;;2.05;1.95;;;20.00;63.20;;;;;;5073023;28;20174;-66
2022/06/11 01:13:38;;;;;;;2.47;1.88;;;20.00;63.20;;;;;;5074031;28;20170;-66
2022/06/11 01:16:07;;;;;;;5.20;2.33;;;20.00;63.20;;;;;;5073780;28;20194;-67
2022/06/11 01:18:39;;;;;;;1.92;1.83;;;20.00;63.20;;;;;;5073326;28;20225;-66
2022/06/11 01:21:10;;;;;;;3.15;2.05;;;20.10;63.20;;;;;;5073962;28;20178;-69
2022/06/11 01:23:54;;;;;;;3.05;2.00;;;20.00;63.10;;;;;;5073797;28;20175;-68
2022/06/11 01:26:50;;;;;;;2.45;2.15;;;20.00;63.10;;;;;;5073035;28;20183;-67
2022/06/11 01:29:36;;;;;;;2.35;2.15;;;20.00;63.10;;;;;;5073821;28;20235;-68
2022/06/11 01:32:41;;;;;;;2.30;2.20;;;20.00;63.10;;;;;;5071867;28;20186;-70
2022/06/11 01:35:24;;;;;;;2.22;2.13;;;20.00;63.10;;;;;;5051483;28;20205;-68
2022/06/11 01:37:54;;;;;;;4.03;2.42;;;20.00;63.10;;;;;;5069260;28;20325;-68
2022/06/11 01:40:29;;;;;;;2.20;2.10;;;20.10;63.10;;;;;;5072986;28;20251;-68
2022/06/11 01:43:00;;;;;;;2.03;1.92;;;20.00;63.10;;;;;;5072160;28;20544;-67
2022/06/11 01:45:32;;;;;;;2.33;2.13;;;20.00;63.10;;;;;;5056479;28;20261;-67
2022/06/11 01:47:58;;;;;;;2.85;2.20;;;20.00;63.10;;;;;;5073253;28;20181;-69
2022/06/11 01:50:25;;;;;;;2.58;2.25;;;20.00;63.00;;;;;;5072099;28;20186;-68
2022/06/11 01:53:19;;;;;;;1.90;1.80;;;20.00;63.00;;;;;;5045831;28;20187;-68
2022/06/11 01:56:14;;;;;;;2.33;2.13;;;20.00;63.10;;;;;;5051983;28;20171;-68
2022/06/11 01:58:44;;;;;;;2.13;2.03;;;20.00;63.00;;;;;;5052687;28;20654;-67
2022/06/11 02:01:25;;;;;;;2.50;2.30;;;20.00;63.10;;;;;;5051197;28;20215;-68
2022/06/11 02:04:01;;;;;;;2.25;2.05;;;20.00;63.00;;;;;;5052727;28;20226;-69
2022/06/11 02:06:51;;;;;;;2.38;2.15;;;19.90;62.90;;;;;;5052126;28;20254;-69
2022/06/11 02:09:23;;;;;;;2.30;2.10;;;20.00;63.10;;;;;;5052221;28;20171;-68
2022/06/11 02:12:00;;;;;;;2.47;2.28;;;20.00;63.10;;;;;;5051663;28;20250;-67
2022/06/11 02:14:31;;;;;;;2.05;1.88;;;20.00;63.20;;;;;;5051111;28;20588;-66
2022/06/11 02:17:02;;;;;;;2.35;1.80;;;19.90;63.00;;;;;;5052431;28;20552;-66
2022/06/11 02:19:37;;;;;;;1.85;1.75;;;20.00;63.10;;;;;;5051593;28;20708;-66
2022/06/11 02:22:09;;;;;;;2.00;1.90;;;19.90;63.00;;;;;;5050882;28;20183;-67
2022/06/11 02:24:46;;;;;;;2.67;2.10;;;19.90;63.00;;;;;;5051350;28;20171;-67
2022/06/11 02:27:17;;;;;;;3.83;2.17;;;19.90;63.00;;;;;;5051455;28;20539;-67
2022/06/11 02:29:43;;;;;;;1.95;1.85;;;19.90;63.00;;;;;;5050430;28;20700;-67
2022/06/11 02:32:12;;;;;;;2.10;2.00;;;19.90;63.00;;;;;;5051477;28;20178;-68
2022/06/11 02:34:39;;;;;;;2.20;2.05;;;19.90;63.00;;;;;;5051197;28;20189;-68
2022/06/11 02:37:20;;;;;;;2.10;2.00;;;19.90;63.00;;;;;;5051622;28;20214;-68
2022/06/11 02:39:46;;;;;;;2.22;2.10;;;19.90;63.10;;;;;;5052407;28;20170;-68
2022/06/11 02:42:13;;;;;;;1.80;1.70;;;19.90;63.00;;;;;;5051777;28;20684;-67
2022/06/11 02:44:38;;;;;;;1.90;1.80;;;19.90;63.10;;;;;;5052289;28;20183;-67
2022/06/11 02:47:04;;;;;;;2.53;1.88;;;19.90;63.00;;;;;;5052288;28;20541;-67
2022/06/11 02:49:32;;;;;;;2.05;1.85;;;19.90;63.10;;;;;;5051397;28;20271;-67
2022/06/11 02:52:00;;;;;;;2.35;2.15;;;19.90;63.10;;;;;;5052178;28;20227;-67
2022/06/11 02:54:25;;;;;;;2.08;1.98;;;19.90;63.10;;;;;;5052332;28;20191;-67
2022/06/11 02:56:51;;;;;;;2.10;1.90;;;19.90;63.10;;;;;;5051287;28;20214;-67
2022/06/11 02:59:17;;;;;;;1.67;1.58;;;19.90;63.10;;;;;;5052362;28;20218;-68
2022/06/11 03:01:43;;;;;;;2.10;1.90;;;19.90;63.10;;;;;;5051220;28;20208;-69
2022/06/11 03:04:09;;;;;;;2.10;1.90;;;19.90;63.10;;;;;;5051179;28;20309;-68
2022/06/11 03:06:34;;;;;;;1.90;1.80;;;19.90;63.10;;;;;;5052060;28;20182;-68
2022/06/11 03:09:00;;;;;;;1.85;1.75;;;19.80;63.00;;;;;;5052049;28;20179;-67
2022/06/11 03:11:26;;;;;;;2.28;2.15;;;19.90;63.10;;;;;;5050232;28;20175;-67
2022/06/11 03:13:52;;;;;;;2.20;2.00;;;19.80;63.00;;;;;;5051571;28;20202;-66
2022/06/11 03:16:17;;;;;;;2.50;2.30;;;19.80;63.00;;;;;;5052546;28;20199;-67
2022/06/11 03:18:43;;;;;;;2.00;1.90;;;19.80;63.00;;;;;;5050975;28;20377;-67
2022/06/11 03:21:08;;;;;;;1.75;1.65;;;19.80;63.00;;;;;;5051882;28;20268;-66
2022/06/11 03:23:34;;;;;;;1.80;1.70;;;19.80;63.00;;;;;;5052209;28;20555;-67
2022/06/11 03:26:00;;;;;;;2.05;1.95;;;19.80;63.00;;;;;;5051215;28;20183;-67
2022/06/11 03:28:27;;;;;;;2.13;2.00;;;19.80;63.00;;;;;;5051877;28;20171;-68
2022/06/11 03:30:52;;;;;;;1.98;1.88;;;19.80;63.00;;;;;;5051566;28;20175;-68
2022/06/11 03:33:18;;;;;;;2.00;1.90;;;19.80;63.00;;;;;;5051024;28;20178;-68
2022/06/11 03:35:44;;;;;;;2.10;1.90;;;19.80;63.00;;;;;;5051696;28;20642;-68
2022/06/11 03:38:10;;;;;;;2.20;2.00;;;19.80;63.10;;;;;;5051292;28;20239;-68
2022/06/11 03:40:36;;;;;;;1.75;1.58;;;19.80;63.00;;;;;;5051580;28;20175;-68
2022/06/11 03:43:01;;;;;;;1.70;1.60;;;19.80;63.00;;;;;;5051688;28;20228;-67
2022/06/11 03:45:28;;;;;;;2.05;1.95;;;19.80;63.10;;;;;;5051209;28;20179;-67
2022/06/11 03:47:53;;;;;;;2.03;1.92;;;19.80;63.00;;;;;;5051440;28;20276;-68
2022/06/11 03:50:24;;;;;;;2.00;1.90;;;19.80;63.90;;;;;;5051912;28;20210;-69
2022/06/11 03:52:50;;;;;;;2.15;1.95;;;19.80;63.00;;;;;;5050901;28;20187;-68
2022/06/11 03:55:16;;;;;;;2.10;1.90;;;19.80;63.00;;;;;;5051804;28;20179;-68
2022/06/11 03:57:41;;;;;;;1.70;1.60;;;19.80;63.00;;;;;;5051314;28;20234;-68
2022/06/11 04:00:09;;;;;;;1.60;1.50;;;19.80;63.00;;;;;;5051089;28;20590;-70
2022/06/11 04:02:34;;;;;;;2.22;1.65;;;19.80;63.00;;;;;;5051213;28;20226;-69
2022/06/11 04:05:00;;;;;;;1.98;1.80;;;19.80;63.00;;;;;;5051625;28;20186;-69
2022/06/11 04:07:25;;;;;;;1.85;1.70;;;19.80;63.00;;;;;;5051083;28;20171;-69
2022/06/11 04:09:51;;;;;;;1.90;1.80;;;19.80;62.90;;;;;;5051335;28;20168;-67
2022/06/11 04:12:16;;;;;;;1.92;1.83;;;19.80;62.90;;;;;;5051572;28;20182;-67
2022/06/11 04:14:43;;;;;;;1.90;1.77;;;19.80;62.90;;;;;;5052960;28;20253;-66
2022/06/11 04:17:35;;;;;;;1.85;1.75;;;19.80;62.80;;;;;;5055075;28;20218;-67
2022/06/11 04:20:01;;;;;;;2.00;1.90;;;19.90;62.90;;;;;;5054044;28;20650;-67
2022/06/11 04:22:26;;;;;;;1.90;1.77;;;19.80;62.80;;;;;;5054520;28;20233;-66
2022/06/11 04:24:52;;;;;;;1.50;1.40;;;19.90;62.90;;;;;;5054770;28;20171;-67
2022/06/11 04:27:18;;;;;;;2.65;1.90;;;19.90;62.90;;;;;;5054382;28;20634;-68
2022/06/11 04:29:47;;;;;;;1.77;1.67;;;19.90;62.80;;;;;;5054699;28;20179;-67
2022/06/11 04:32:15;;;;;;;1.73;1.63;;;19.90;62.80;;;;;;5054854;28;20171;-68
2022/06/11 04:34:41;;;;;;;1.67;1.58;;;19.90;62.80;;;;;;5054056;28;20563;-68
2022/06/11 04:37:08;;;;;;;2.20;2.00;;;19.90;62.80;;;;;;5054607;28;20694;-69
2022/06/11 04:39:33;;;;;;;1.75;1.65;;;19.90;62.90;;;;;;5054988;28;20225;-67
2022/06/11 04:42:00;;;;;;;1.95;1.63;;;19.90;62.90;;;;;;5053781;28;20618;-68
2022/06/11 04:44:26;;;;;;;1.75;1.65;;;19.90;62.90;;;;;;5053707;28;20207;-68
2022/06/11 04:46:52;;;;;;;2.03;1.92;;;19.90;62.90;;;;;;5054608;28;20179;-67
2022/06/11 04:49:17;;;;;;;1.70;1.60;;;19.90;62.90;;;;;;5053968;28;20171;-67
2022/06/11 04:51:43;;;;;;;2.03;1.90;;;19.90;62.90;;;;;;5054256;28;20187;-67
2022/06/11 04:54:08;;;;;;;2.22;1.92;;;19.90;62.80;;;;;;5054632;28;20175;-68
2022/06/11 04:56:34;;;;;;;1.70;1.60;;;19.90;62.90;;;;;;5053659;28;20738;-67
2022/06/11 04:59:00;;;;;;;2.13;1.92;;;19.90;62.90;;;;;;5054497;28;20186;-67
2022/06/11 05:01:26;;;;;;;1.63;1.52;;;19.90;62.90;;;;;;5054262;28;20175;-68
2022/06/11 05:03:51;;;;;;;1.67;1.55;;;19.90;62.90;;;;;;5053067;28;20713;-69
2022/06/11 05:06:19;;;;;;;2.17;1.60;;;19.90;62.90;;;;;;5054181;28;20183;-68
2022/06/11 05:08:44;;;;;;;2.72;1.60;;;19.90;62.90;;;;;;5052345;28;20639;-66
2022/06/11 05:11:10;;;;;;;1.55;1.45;;;19.90;62.90;;;;;;5053359;28;20233;-66
2022/06/11 05:13:36;;;;;;;1.75;1.65;;;19.90;62.90;;;;;;5053965;28;20171;-67
2022/06/11 05:16:01;;;;;;;1.73;1.63;;;19.90;62.90;;;;;;5053924;28;20258;-67
2022/06/11 05:18:27;;;;;;;2.05;1.95;;;19.90;62.80;;;;;;5053293;28;20286;-67
2022/06/11 05:20:53;;;;;;;2.22;1.75;;;19.90;62.90;;;;;;5053588;28;20250;-66
2022/06/11 05:23:18;;;;;;;2.05;1.80;;;19.90;62.80;;;;;;5053773;28;20180;-67
2022/06/11 05:25:44;;;;;;;2.75;1.65;;;19.90;62.90;;;;;;5052265;28;20634;-67
2022/06/11 05:28:19;;;;;;;2.35;1.70;;;19.90;62.90;;;;;;5053582;28;20171;-68
2022/06/11 05:30:44;;;;;;;2.05;1.55;;;19.90;63.00;;;;;;5051698;28;20221;-69
2022/06/11 05:33:10;;;;;;;1.98;1.40;;;19.90;62.90;;;;;;5053728;28;20207;-68
2022/06/11 05:35:36;;;;;;;2.10;1.60;;;19.90;62.90;;;;;;5053271;28;20207;-70
2022/06/11 05:38:04;;;;;;;2.33;2.05;;;19.90;62.90;;;;;;5051475;28;20673;-68
2022/06/11 05:40:31;;;;;;;1.95;1.85;;;19.90;62.90;;;;;;5053327;28;20187;-67
2022/06/11 05:42:57;;;;;;;1.65;1.38;;;19.90;62.90;;;;;;5053369;28;20187;-68
2022/06/11 05:45:28;;;;;;;2.05;1.73;;;19.90;62.80;;;;;;5052789;28;20167;-67
2022/06/11 05:47:53;;;;;;;2.00;1.75;;;19.90;62.70;;;;;;5051825;28;20175;-67
2022/06/11 05:50:21;;;;;;;2.67;1.58;;;19.90;62.80;;;;;;5053242;28;20182;-67
2022/06/11 05:52:47;;;;;;;2.95;2.05;;;19.90;62.80;;;;;;5052199;28;20179;-67
2022/06/11 05:55:15;;;;;;;2.40;1.80;;;20.00;62.80;;;;;;5052199;28;20171;-68
2022/06/11 05:57:41;;;;;;;1.60;1.50;;;19.90;62.70;;;;;;5051443;28;20685;-68
2022/06/11 06:00:08;;;;;;;2.50;1.80;;;20.00;62.70;;;;;;5052275;28;20179;-68
2022/06/11 06:02:33;;;;;;;1.92;1.67;;;20.00;62.70;;;;;;5052964;28;20364;-68
2022/06/11 06:04:59;;;;;;;1.85;1.60;;;20.00;62.60;;;;;;5052617;28;20278;-69
2022/06/11 06:07:25;;;;;;;2.42;1.73;;;20.00;62.70;;;;;;5052072;28;20273;-71
2022/06/11 06:09:50;;;;;;;1.63;1.45;;;20.00;62.60;;;;;;5052547;28;20175;-68
2022/06/11 06:12:16;;;;;;;2.95;2.05;;;20.00;62.60;;;;;;5052978;28;20171;-67
2022/06/11 06:14:42;;;;;;;2.33;1.77;;;20.00;62.60;;;;;;5051889;28;20186;-66
2022/06/11 06:17:08;;;;;;;2.45;1.50;;;20.00;62.60;;;;;;5052733;28;20210;-67
2022/06/11 06:19:33;;;;;;;2.85;1.90;;;20.00;62.40;;;;;;5052739;28;20182;-68
2022/06/11 06:22:04;;;;;;;2.13;1.80;;;20.00;62.40;;;;;;5051672;28;20630;-68
2022/06/11 06:24:30;;;;;;;2.88;1.98;;;20.00;63.30;;;;;;5052684;28;20646;-70
2022/06/11 06:26:56;;;;;;;2.80;1.80;;;20.00;62.40;;;;;;5051775;28;20179;-68
2022/06/11 06:29:21;;;;;;;1.70;1.60;;;20.00;62.30;;;;;;5052624;28;20645;-68
2022/06/11 06:31:47;;;;;;;2.80;1.70;;;20.00;62.30;;;;;;5052167;28;20225;-67
2022/06/11 06:34:13;;;;;;;2.45;1.90;;;20.00;62.20;;;;;;5051820;28;20236;-68
2022/06/11 06:36:38;;;;;;;3.42;1.55;;;20.10;62.20;;;;;;5050762;28;20645;-67
2022/06/11 06:39:04;;;;;;;3.00;1.90;;;20.10;62.20;;;;;;5052137;28;20610;-68
2022/06/11 06:41:30;;;;;;;1.98;1.77;;;20.10;62.20;;;;;;5051770;28;20201;-67
2022/06/11 06:43:56;;;;;;;2.55;1.52;;;20.10;62.20;;;;;;5052183;28;20187;-68
2022/06/11 06:46:21;;;;;;;2.15;1.75;;;20.10;62.20;;;;;;5052518;28;20175;-67
2022/06/11 06:48:47;;;;;;;1.70;1.58;;;20.10;62.20;;;;;;5051286;28;20178;-67
2022/06/11 06:51:12;;;;;;;2.53;1.45;;;20.10;62.20;;;;;;5052142;28;20171;-67
2022/06/11 06:53:39;;;;;;;3.88;1.77;;;20.10;62.20;;;;;;5052008;28;20163;-67
2022/06/11 06:56:05;;;;;;;2.20;1.60;;;20.10;62.20;;;;;;5051538;28;20225;-67
2022/06/11 06:58:31;;;;;;;2.70;1.77;;;20.10;62.10;;;;;;5051961;28;20191;-68
2022/06/11 07:00:56;;;;;;;2.80;1.58;;;20.10;62.10;;;;;;5051764;28;20182;-68
2022/06/11 07:03:22;;;;;;;2.08;1.77;;;20.10;62.10;;;;;;5050759;28;20214;-69
2022/06/11 07:05:48;;;;;;;3.20;1.98;;;20.20;62.10;;;;;;5051487;28;20175;-69
2022/06/11 07:08:14;;;;;;;2.33;1.40;;;20.20;62.20;;;;;;5051894;28;20528;-68
2022/06/11 07:10:40;;;;;;;2.53;1.58;;;20.10;62.10;;;;;;5050918;28;20179;-66
2022/06/11 07:13:05;;;;;;;3.67;2.00;;;20.20;62.10;;;;;;5050806;28;20190;-66
2022/06/11 07:15:31;;;;;;;3.28;1.70;;;20.20;62.10;;;;;;5051909;28;20641;-67
2022/06/11 07:18:03;;;;;;;2.17;1.45;;;20.20;62.00;;;;;;5049744;28;20211;-67
2022/06/11 07:20:30;;;;;;;3.33;1.83;;;20.20;62.00;;;;;;5050547;28;20200;-68
2022/06/11 07:22:57;;;;;;;3.10;1.92;;;20.20;62.00;;;;;;5051719;28;20171;-68
2022/06/11 07:25:23;;;;;;;2.72;1.70;;;20.20;62.00;;;;;;5050021;28;20179;-68
2022/06/11 07:27:52;;;;;;;2.17;1.90;;;20.30;62.10;;;;;;5050305;28;20201;-69
2022/06/11 07:30:22;;;;;;;3.28;1.75;;;20.20;62.00;;;;;;5049469;28;20685;-69
2022/06/11 07:32:49;;;;;;;2.25;1.75;;;20.30;62.00;;;;;;5050257;28;20194;-69
2022/06/11 07:35:15;;;;;;;4.38;1.65;;;20.30;61.90;;;;;;5050400;28;20182;-69
2022/06/11 07:37:41;;;;;;;2.85;1.40;;;20.30;62.70;;;;;;5049517;28;20676;-69
2022/06/11 07:40:07;;;;;;;2.65;1.70;;;20.30;61.80;;;;;;5050589;28;20175;-69
2022/06/11 07:42:32;;;;;;;2.45;1.83;;;20.30;61.80;;;;;;5051563;28;20208;-69
2022/06/11 07:44:58;;;;;;;3.40;2.03;;;20.30;61.80;;;;;;5050585;28;20175;-68
2022/06/11 07:50:08;;;;;;;3.42;1.73;;;20.30;61.80;;;;;;5055570;28;20170;-68
2022/06/11 07:52:34;;;;;;;2.08;1.83;;;20.40;61.90;;;;;;5053433;28;20670;-67
2022/06/11 07:54:59;;;;;;;4.68;1.77;;;20.40;61.90;;;;;;5055375;28;20183;-69
2022/06/11 07:57:25;;;;;;;1.83;1.65;;;20.40;62.00;;;;;;5055316;28;20293;-70
2022/06/11 07:59:50;;;;;;;6.38;2.00;;;20.40;62.00;;;;;;5054145;28;20274;-72
2022/06/11 08:02:16;;;;;;;4.93;2.00;;;20.40;62.00;;;;;;5055255;28;20227;-71
2022/06/11 08:04:41;;;;;;;3.70;1.75;;;20.40;62.00;;;;;;5054954;28;20178;-71
2022/06/11 08:07:07;;;;;;;5.30;1.92;;;20.50;62.00;;;;;;5054521;28;20163;-70
2022/06/11 08:09:32;;;;;;;2.97;2.03;;;20.40;61.90;;;;;;5055404;28;20210;-69
2022/06/11 08:11:58;;;;;;;4.47;1.65;;;20.40;61.90;;;;;;5054862;28;20546;-70
2022/06/11 08:14:24;;;;;;;3.30;2.00;;;20.50;62.00;;;;;;5054266;28;20175;-69
2022/06/11 08:16:49;;;;;;;4.82;2.08;;;20.50;62.00;;;;;;5054995;28;20211;-69
2022/06/11 08:19:15;;;;;;;3.67;1.88;;;20.50;62.80;;;;;;5055134;28;20343;-70
2022/06/11 08:21:41;;;;;;;4.60;2.00;;;20.50;62.00;;;;;;5054099;28;20264;-68
2022/06/11 08:24:07;;;;;;;3.47;1.80;;;20.50;61.90;;;;;;5055250;28;20273;-69
2022/06/11 08:26:33;;;;;;;3.88;1.80;;;20.50;61.90;;;;;;5054051;28;20660;-69
2022/06/11 08:28:58;;;;;;;4.03;1.75;;;20.50;61.90;;;;;;5054439;28;20171;-69
2022/06/11 08:31:24;;;;;;;4.15;1.90;;;20.50;61.80;;;;;;5054692;28;20175;-70
2022/06/11 08:33:49;;;;;;;4.45;2.25;;;20.60;61.90;;;;;;5053911;28;20481;-72
2022/06/11 08:36:15;;;;;;;3.63;1.92;;;20.50;61.80;;;;;;5054712;28;20597;-70
2022/06/11 08:38:40;;;;;;;4.90;1.90;;;20.60;61.80;;;;;;5054428;28;20197;-71
2022/06/11 08:41:20;;;;;;;2.85;1.85;;;20.60;61.70;;;;;;5054128;28;20171;-69
2022/06/11 08:44:08;;;;;;;5.15;2.05;;;20.60;61.80;;;;;;5053031;28;20175;-70
2022/06/11 08:46:39;;;;;;;3.92;2.08;;;20.60;61.70;;;;;;5054728;28;20175;-70
2022/06/11 08:49:05;;;;;;;6.13;2.45;;;20.70;61.70;;;;;;5053961;28;20229;-70
2022/06/11 08:51:39;;;;;;;5.70;2.10;;;20.60;61.60;;;;;;5054723;28;20179;-70
2022/06/11 08:54:10;;;;;;;5.00;2.08;;;20.70;61.70;;;;;;5054665;28;20711;-70
2022/06/11 08:56:53;;;;;;;6.28;2.45;;;20.70;61.60;;;;;;5053883;28;20207;-70
2022/06/11 08:59:44;;;;;;;4.97;1.90;;;20.70;61.70;;;;;;5051932;28;20180;-69
2022/06/11 09:02:27;;;;;;;3.33;2.13;;;20.70;61.60;;;;;;5052236;28;20198;-70
2022/06/11 09:05:22;;;;;;;3.70;1.83;;;20.70;61.70;;;;;;5054012;28;20189;-70
2022/06/11 09:07:57;;;;;;;4.95;2.00;;;20.80;61.70;;;;;;5053907;28;20252;-71
2022/06/11 09:10:44;;;;;;;6.03;2.30;;;20.80;61.70;;;;;;5051985;28;20264;-70
2022/06/11 09:13:31;;;;;;;5.18;2.38;;;20.80;61.70;;;;;;5053773;28;20638;-70
2022/06/11 09:16:04;;;;;;;5.10;2.20;;;20.80;62.10;;;;;;5052938;28;20175;-70
2022/06/11 09:18:51;;;;;;;6.93;2.33;;;20.80;62.30;;;;;;5052539;28;20703;-69
2022/06/11 09:21:42;;;;;;;5.22;2.33;;;20.80;62.40;;;;;;5052716;28;20167;-69
2022/06/11 09:24:36;;;;;;;4.43;2.20;;;20.80;62.60;;;;;;5052068;28;20186;-70
2022/06/11 09:27:36;;;;;;;4.15;1.95;;;20.90;62.30;;;;;;5052362;28;20175;-66
2022/06/11 09:30:11;;;;;;;4.28;2.08;;;20.90;62.40;;;;;;5053072;28;20167;-72
2022/06/11 09:32:58;;;;;;;4.80;2.42;;;20.90;62.50;;;;;;5052552;28;20388;-72
2022/06/11 09:35:35;;;;;;;5.43;1.98;;;20.90;62.50;;;;;;5053638;28;20218;-71
2022/06/11 09:38:04;;;;;;;6.95;2.50;;;21.00;62.60;;;;;;5052564;28;20279;-71
2022/06/11 09:40:38;;;;;;;5.70;1.98;;;21.00;62.50;;;;;;5053410;28;20179;-70
2022/06/11 09:43:21;;;;;;;8.52;2.30;;;21.10;62.50;;;;;;5053461;28;20226;-70
2022/06/11 09:45:55;;;;;;;6.57;2.38;;;21.10;63.10;;;;;;5051207;28;20171;-71
2022/06/11 09:48:39;;;;;;;3.17;1.92;;;21.10;62.40;;;;;;5051847;28;20244;-73
2022/06/11 09:51:25;;;;;;;5.75;2.05;;;21.10;62.50;;;;;;5052276;28;20199;-71
2022/06/11 09:53:53;;;;;;;4.00;1.98;;;21.10;62.40;;;;;;5051577;28;20593;-71
2022/06/11 09:56:43;;;;;;;4.63;2.10;;;21.10;62.50;;;;;;5053223;28;20224;-70
2022/06/11 09:59:38;;;;;;;5.13;2.33;;;21.20;62.40;;;;;;5051079;28;20697;-71
2022/06/11 10:02:07;;;;;;;6.18;2.20;;;21.10;62.40;;;;;;5051340;28;20592;-71
2022/06/11 10:04:41;;;;;;;3.15;1.90;;;21.20;62.40;;;;;;5053080;28;20187;-70
2022/06/11 10:07:17;;;;;;;6.50;2.20;;;21.10;62.30;;;;;;5053976;28;20210;-70
2022/06/11 10:10:06;;;;;;;3.47;1.80;;;21.20;62.40;;;;;;5051383;28;20170;-69
2022/06/11 10:12:43;;;;;;;3.90;2.17;;;21.10;62.30;;;;;;5031025;28;20221;-69
2022/06/11 10:15:16;;;;;;;4.20;1.90;;;21.10;62.30;;;;;;5047310;28;20181;-68
2022/06/11 10:17:58;;;;;;;4.53;2.08;;;21.20;62.30;;;;;;5055072;28;20209;-69
2022/06/11 10:20:34;;;;;;;3.28;1.80;;;21.10;62.40;;;;;;5054950;28;20216;-69
2022/06/11 10:23:22;;;;;;;4.15;2.03;;;21.10;62.40;;;;;;5068774;28;20170;-68
2022/06/11 10:26:05;;;;;;;4.15;1.70;;;21.10;62.20;;;;;;5052183;28;20182;-68
2022/06/11 10:28:40;;;;;;;4.43;1.80;;;21.20;62.20;;;;;;5051441;28;20266;-69
2022/06/11 10:31:08;;;;;;;4.03;1.67;;;21.20;62.10;;;;;;5052362;28;20187;-71
2022/06/11 10:33:38;;;;;;;4.20;1.98;;;21.20;62.00;;;;;;5050703;28;20175;-70
2022/06/11 10:36:20;;;;;;;4.57;2.45;;;21.20;61.90;;;;;;5050981;28;20175;-70
2022/06/11 10:38:58;;;;;;;4.78;1.95;;;21.30;62.00;;;;;;5052238;28;20191;-69
2022/06/11 10:41:26;;;;;;;7.30;2.50;;;21.30;61.90;;;;;;5064811;28;20170;-69
2022/06/11 10:44:05;;;;;;;3.38;1.98;;;21.20;61.90;;;;;;5070775;28;20171;-69
2022/06/11 10:46:32;;;;;;;3.60;2.03;;;21.30;61.80;;;;;;5071492;28;20210;-70
2022/06/11 10:48:59;;;;;;;3.70;1.73;;;21.30;61.90;;;;;;5053411;28;20683;-69
2022/06/11 10:51:31;;;;;;;4.60;2.45;;;21.30;61.80;;;;;;5072449;28;20782;-71
2022/06/11 10:54:17;;;;;;;5.55;2.50;;;21.20;62.00;;;;;;5055325;28;20186;-69
2022/06/11 10:56:48;;;;;;;4.60;2.35;;;21.30;62.20;;;;;;5050577;28;20203;-69
2022/06/11 10:59:45;;;;;;;5.07;2.08;;;21.20;62.00;;;;;;5050856;28;20655;-69
2022/06/11 11:02:23;;;;;;;3.55;2.00;;;21.30;62.10;;;;;;5049676;28;20662;-72
2022/06/11 11:04:58;;;;;;;5.85;2.05;;;21.30;62.00;;;;;;5050503;28;20633;-72
2022/06/11 11:07:24;;;;;;;6.03;1.70;;;21.30;61.90;;;;;;5051907;28;20192;-73
2022/06/11 11:09:50;;;;;;;4.53;1.77;;;21.40;61.70;;;;;;5050844;28;20619;-69
2022/06/11 11:12:24;;;;;;;5.22;2.00;;;21.40;61.70;;;;;;5052281;28;20317;-69
2022/06/11 11:15:14;;;;;;;5.80;2.00;;;21.30;61.80;;;;;;5058169;28;20541;-67
2022/06/11 11:17:52;;;;;;;3.72;1.80;;;21.40;61.70;;;;;;5070319;28;20229;-69
2022/06/11 11:20:40;;;;;;;7.75;2.47;;;21.40;61.80;;;;;;5071661;28;20186;-69
2022/06/11 11:23:09;;;;;;;7.28;2.53;;;21.40;61.70;;;;;;5073591;28;20185;-73
2022/06/11 11:25:43;;;;;;;5.32;1.98;;;21.50;61.60;;;;;;5077200;28;20174;-70
2022/06/11 11:28:19;;;;;;;5.95;2.17;;;21.50;61.60;;;;;;5077119;28;20177;-71
2022/06/11 11:30:45;;;;;;;10.75;2.17;;;21.50;61.70;;;;;;5076507;28;20189;-69
2022/06/11 11:33:29;;;;;;;6.95;2.03;;;21.50;61.80;;;;;;5077184;28;20200;-71
2022/06/11 11:36:20;;;;;;;5.82;2.78;;;21.50;61.70;;;;;;5078133;28;20243;-70
2022/06/11 11:38:59;;;;;;;6.45;2.00;;;21.50;61.70;;;;;;5078016;28;20230;-71
2022/06/11 11:41:25;;;;;;;5.85;2.20;;;21.50;61.80;;;;;;5077349;28;20170;-70
2022/06/11 11:43:51;;;;;;;5.07;1.80;;;21.60;62.60;;;;;;5077492;28;20389;-69
2022/06/11 11:46:22;;;;;;;5.28;2.20;;;21.60;61.60;;;;;;5078267;28;20178;-73
2022/06/11 11:48:55;;;;;;;8.32;1.88;;;21.50;61.70;;;;;;5078108;28;20202;-75
2022/06/11 11:51:38;;;;;;;8.90;2.85;;;21.50;61.70;;;;;;5076252;28;20253;-73
2022/06/11 11:54:11;;;;;;;4.63;1.80;;;21.60;61.70;;;;;;5061900;28;20178;-73
2022/06/11 11:56:40;;;;;;;5.20;2.40;;;21.50;61.70;;;;;;5077012;28;20259;-73
2022/06/11 11:59:22;;;;;;;5.20;1.98;;;21.60;61.70;;;;;;5077563;28;20174;-72
2022/06/11 12:01:48;;;;;;;5.90;1.95;;;21.60;61.20;;;;;;5076912;28;20158;-74
2022/06/11 12:04:27;;;;;;;5.38;1.80;;;21.60;61.50;;;;;;5076792;28;20283;-74
2022/06/11 12:06:54;;;;;;;5.30;1.88;;;21.60;61.70;;;;;;5077666;28;20261;-73
2022/06/11 12:09:47;;;;;;;4.13;2.45;;;21.60;61.40;;;;;;5077119;28;20186;-74
2022/06/11 12:12:17;;;;;;;3.15;1.75;;;21.60;61.50;;;;;;5076369;28;20273;-72
2022/06/11 12:14:51;;;;;;;6.78;2.13;;;21.70;61.20;;;;;;5071106;28;20277;-72
2022/06/11 12:17:44;;;;;;;3.72;1.55;;;21.70;61.20;;;;;;5057974;28;20697;-73
2022/06/11 12:20:26;;;;;;;6.88;1.85;;;21.70;61.20;;;;;;5042325;28;20174;-71
2022/06/11 12:23:30;;;;;;;4.70;1.80;;;21.80;61.20;;;;;;5041696;28;20183;-72
2022/06/11 12:26:16;;;;;;;4.57;1.83;;;21.80;61.10;;;;;;5048226;28;20187;-72
2022/06/11 12:28:47;;;;;;;4.63;1.70;;;21.80;60.90;;;;;;5057404;28;20665;-71
2022/06/11 12:31:13;;;;;;;4.20;2.25;;;21.80;61.00;;;;;;5056575;28;20742;-74
2022/06/11 12:33:43;;;;;;;4.85;1.70;;;21.80;61.10;;;;;;5038291;28;20251;-74
2022/06/11 12:36:15;;;;;;;4.32;2.08;;;21.80;61.00;;;;;;5052736;28;20259;-72
2022/06/11 12:38:55;;;;;;;4.32;1.67;;;21.80;61.00;;;;;;5053114;28;20231;-72
2022/06/11 12:41:26;;;;;;;3.85;1.52;;;21.90;60.80;;;;;;5052611;28;20545;-72
2022/06/11 12:44:23;;;;;;;4.93;1.70;;;22.00;60.60;;;;;;5054060;28;20168;-73
2022/06/11 12:47:13;;;;;;;3.75;1.92;;;22.00;60.50;;;;;;5033608;28;20279;-73
2022/06/11 12:49:54;;;;;;;3.78;1.83;;;22.00;60.60;;;;;;5054025;28;20224;-74
2022/06/11 12:52:35;;;;;;;3.60;1.67;;;21.90;60.60;;;;;;5037618;28;20645;-73
2022/06/11 12:55:24;;;;;;;3.70;2.10;;;21.90;60.90;;;;;;5052397;28;20376;-72
2022/06/11 12:58:03;;;;;;;5.50;1.58;;;21.80;61.00;;;;;;5037937;28;20257;-71
2022/06/11 13:00:28;;;;;;;3.78;1.90;;;21.80;61.10;;;;;;5053126;28;20163;-70
2022/06/11 13:03:15;;;;;;;3.95;1.60;;;21.80;61.20;;;;;;5052850;28;20391;-72
2022/06/11 13:05:51;;;;;;;3.55;1.80;;;21.80;61.20;;;;;;5037279;28;20190;-69
2022/06/11 13:08:52;;;;;;;5.22;1.90;;;21.80;61.20;;;;;;5052326;28;20175;-73
2022/06/11 13:11:36;;;;;;;4.03;1.80;;;21.80;61.20;;;;;;5042686;28;20552;-72
2022/06/11 13:14:25;;;;;;;4.22;1.70;;;21.80;61.20;;;;;;5054759;28;20181;-73